createdAt,value
2022-09-15T19:44:00.099Z,13.70
2022-09-15T19:46:30.005Z,13.60
2022-09-15T19:49:00.115Z,13.60
2022-09-15T19:51:32.929Z,13.60
2022-09-15T19:54:02.882Z,13.50
2022-09-15T19:56:33.282Z,13.50
2022-09-15T19:59:03.281Z,13.50
2022-09-15T20:01:33.635Z,13.60
2022-09-15T20:04:05.734Z,13.60
2022-09-15T20:06:38.668Z,13.60
2022-09-15T20:09:09.832Z,13.50
2022-09-15T20:11:40.590Z,13.50
2022-09-15T20:14:10.717Z,13.60
2022-09-15T20:16:40.793Z,13.60
2022-09-15T20:19:10.870Z,13.50
2022-09-15T20:21:50.220Z,13.40
2022-09-15T20:24:21.823Z,13.50
2022-09-15T20:26:51.896Z,13.50
2022-09-15T20:29:23.914Z,13.50
2022-09-15T20:31:54.049Z,13.50
2022-09-15T20:34:24.065Z,13.50
2022-09-15T20:36:56.693Z,13.50
2022-09-15T20:39:26.873Z,13.50
2022-09-15T20:41:57.886Z,13.50
2022-09-15T20:44:28.108Z,13.50
2022-09-15T20:46:58.275Z,13.50
2022-09-15T20:49:28.300Z,13.50
2022-09-15T20:52:00.916Z,13.50
2022-09-15T20:54:30.938Z,13.50
2022-09-15T20:57:00.965Z,13.50
2022-09-15T20:59:31.003Z,13.40
2022-09-15T21:02:01.184Z,13.30
2022-09-15T21:04:31.488Z,13.30
2022-09-15T21:07:04.114Z,13.20
2022-09-15T21:09:34.181Z,13.10
2022-09-15T21:12:04.622Z,13.00
2022-09-15T21:14:34.656Z,12.90
2022-09-15T21:17:04.688Z,12.90
2022-09-15T21:19:34.784Z,12.80
2022-09-15T21:22:07.547Z,12.80
2022-09-15T21:24:37.532Z,12.70
2022-09-15T21:27:20.177Z,12.70
2022-09-15T21:29:50.287Z,12.70
2022-09-15T21:32:20.588Z,12.60
2022-09-15T21:34:50.700Z,12.50
2022-09-15T21:37:23.321Z,12.50
2022-09-15T21:39:53.404Z,12.50
2022-09-15T21:42:23.509Z,12.50
2022-09-15T21:44:54.548Z,12.50
2022-09-15T21:47:24.846Z,12.50
2022-09-15T21:49:55.341Z,12.50
2022-09-15T21:52:28.222Z,12.60
2022-09-15T21:54:59.046Z,12.60
2022-09-15T21:57:29.068Z,12.60
2022-09-15T21:59:59.126Z,12.50
2022-09-15T22:02:31.325Z,12.50
2022-09-15T22:05:02.526Z,12.50
2022-09-15T22:07:35.267Z,12.50
2022-09-15T22:10:05.306Z,12.70
2022-09-15T22:12:35.305Z,12.80
2022-09-15T22:15:05.734Z,12.80
2022-09-15T22:17:35.787Z,12.80
2022-09-15T22:20:07.861Z,12.70
2022-09-15T22:22:40.720Z,12.70
2022-09-15T22:25:11.814Z,12.50
2022-09-15T22:27:41.844Z,12.40
2022-09-15T22:30:13.298Z,12.40
2022-09-15T22:32:43.447Z,12.30
2022-09-15T22:35:13.608Z,12.20
2022-09-15T22:37:46.248Z,12.20
2022-09-15T22:40:17.166Z,12.20
2022-09-15T22:42:48.553Z,12.10
2022-09-15T22:45:18.751Z,12.00
2022-09-15T22:47:48.894Z,12.00
2022-09-15T22:50:19.528Z,12.00
2022-09-15T22:52:52.439Z,11.90
2022-09-15T22:55:22.480Z,11.80
2022-09-15T22:57:52.573Z,11.80
2022-09-15T23:00:23.491Z,11.70
2022-09-15T23:02:53.655Z,11.60
2022-09-15T23:05:23.518Z,11.40
2022-09-15T23:07:56.058Z,11.30
2022-09-15T23:10:26.752Z,11.40
2022-09-15T23:12:56.839Z,11.40
2022-09-15T23:15:26.846Z,11.50
2022-09-15T23:17:56.968Z,11.60
2022-09-15T23:20:26.979Z,11.70
2022-09-15T23:22:59.718Z,11.70
2022-09-15T23:25:29.692Z,11.80
2022-09-15T23:27:59.582Z,11.80
2022-09-15T23:30:29.939Z,11.80
2022-09-15T23:32:59.816Z,11.80
2022-09-15T23:35:29.669Z,11.70
2022-09-15T23:38:02.358Z,11.70
2022-09-15T23:40:33.279Z,11.60
2022-09-15T23:43:03.188Z,11.60
2022-09-15T23:45:33.080Z,11.70
2022-09-15T23:48:02.981Z,11.70
2022-09-15T23:50:32.834Z,11.70
2022-09-15T23:53:05.484Z,11.80
2022-09-15T23:55:35.893Z,11.80
2022-09-15T23:58:06.086Z,11.90
